DNA79A LRBC-LIME
Flight info
| Callsign | DNA79A |
|---|---|
| Flight time | N/A |
| Altitude | 36000 |
| Route | BUCSA Z650 TOMET DCT ELROM Y572 BUDOP DCT GOTAR DCT DETSA M984 LUSIL T772 EKLIB |
| Aircraft | A20N/M-SDE2E3FGHIRWXY/LB1 |
Departure
| Time | N/A |
|---|---|
| Airport | Bacău George Enescu International Airport (LRBC) |
Arrival
| Time | 2026-04-30 19:26 |
|---|---|
| Airport | Il Caravaggio International Airport (LIME) |
| Time | Latitude | Longitude | Altitude | Speed | Heading |
|---|---|---|---|---|---|
| 2026-04-30 17:39 | 46.57504 | 24.77100 | 35460 ft | 398 kts | 281° |
| 2026-04-30 17:41 | 46.60812 | 24.44875 | 36301 ft | 409 kts | 280° |
| 2026-04-30 17:42 | 46.61632 | 24.36683 | 36300 ft | 409 kts | 280° |
| 2026-04-30 17:43 | 46.63668 | 24.16181 | 36299 ft | 410 kts | 280° |
| 2026-04-30 17:44 | 46.66063 | 23.91499 | 36282 ft | 412 kts | 280° |
| 2026-04-30 17:47 | 46.69581 | 23.54176 | 36268 ft | 415 kts | 280° |
| 2026-04-30 17:48 | 46.72261 | 23.24920 | 36286 ft | 417 kts | 279° |
| 2026-04-30 17:50 | 46.73843 | 22.91162 | 36296 ft | 423 kts | 270° |
| 2026-04-30 17:52 | 46.73054 | 22.65434 | 36298 ft | 424 kts | 270° |
| 2026-04-30 17:54 | 46.71750 | 22.26810 | 36286 ft | 427 kts | 270° |
| 2026-04-30 17:56 | 46.70472 | 21.92220 | 36284 ft | 429 kts | 269° |
| 2026-04-30 17:58 | 46.69437 | 21.66139 | 36284 ft | 431 kts | 269° |
| 2026-04-30 18:00 | 46.70242 | 21.31396 | 36295 ft | 431 kts | 279° |
| 2026-04-30 18:01 | 46.71981 | 21.09693 | 36306 ft | 432 kts | 279° |
| 2026-04-30 18:02 | 46.74001 | 20.83554 | 36309 ft | 435 kts | 279° |
| 2026-04-30 18:04 | 46.75979 | 20.57206 | 36310 ft | 436 kts | 279° |
| 2026-04-30 18:06 | 46.78525 | 20.22027 | 36335 ft | 438 kts | 278° |
| 2026-04-30 18:08 | 46.80680 | 19.91043 | 36358 ft | 439 kts | 278° |
| 2026-04-30 18:10 | 46.83051 | 19.55496 | 36360 ft | 440 kts | 278° |
| 2026-04-30 18:11 | 46.85037 | 19.24308 | 36344 ft | 441 kts | 278° |
| 2026-04-30 18:13 | 46.86406 | 19.02027 | 36337 ft | 442 kts | 278° |
| 2026-04-30 18:14 | 46.87730 | 18.79644 | 36336 ft | 442 kts | 278° |
| 2026-04-30 18:15 | 46.89251 | 18.52920 | 36336 ft | 443 kts | 278° |
| 2026-04-30 18:16 | 46.90151 | 18.36594 | 36337 ft | 444 kts | 278° |
| 2026-04-30 18:17 | 46.90648 | 18.27581 | 36337 ft | 444 kts | 278° |
| 2026-04-30 18:18 | 46.91351 | 18.14124 | 36341 ft | 445 kts | 277° |
| 2026-04-30 18:18 | 46.91815 | 18.05087 | 36352 ft | 446 kts | 277° |
| 2026-04-30 18:19 | 46.92281 | 17.96051 | 36361 ft | 446 kts | 277° |
| 2026-04-30 18:19 | 46.92745 | 17.87002 | 36368 ft | 446 kts | 277° |
| 2026-04-30 18:20 | 46.93192 | 17.78016 | 36366 ft | 446 kts | 277° |
| 2026-04-30 18:20 | 46.93639 | 17.68901 | 36360 ft | 446 kts | 277° |
| 2026-04-30 18:21 | 46.94075 | 17.59902 | 36360 ft | 447 kts | 277° |
| 2026-04-30 18:21 | 46.94496 | 17.50828 | 36359 ft | 447 kts | 277° |
| 2026-04-30 18:22 | 46.94915 | 17.41743 | 36360 ft | 447 kts | 277° |
| 2026-04-30 18:22 | 46.95468 | 17.29659 | 36355 ft | 447 kts | 277° |
| 2026-04-30 18:23 | 46.95881 | 17.20575 | 36362 ft | 448 kts | 277° |
| 2026-04-30 18:23 | 46.96283 | 17.11478 | 36369 ft | 448 kts | 277° |
| 2026-04-30 18:24 | 46.96863 | 16.97831 | 36367 ft | 448 kts | 277° |
| 2026-04-30 18:25 | 46.97244 | 16.88731 | 36364 ft | 448 kts | 277° |
| 2026-04-30 18:25 | 46.97804 | 16.75063 | 36366 ft | 449 kts | 277° |
| 2026-04-30 18:26 | 46.98343 | 16.61365 | 36379 ft | 449 kts | 277° |
| 2026-04-30 18:27 | 46.98863 | 16.47721 | 36378 ft | 449 kts | 277° |
| 2026-04-30 18:28 | 46.99386 | 16.34011 | 36370 ft | 450 kts | 277° |
| 2026-04-30 18:28 | 46.99731 | 16.20269 | 36366 ft | 453 kts | 271° |
| 2026-04-30 18:29 | 46.99104 | 16.01810 | 36360 ft | 454 kts | 271° |
| 2026-04-30 18:30 | 46.98471 | 15.83350 | 36363 ft | 454 kts | 271° |
| 2026-04-30 18:31 | 46.97967 | 15.69502 | 36363 ft | 454 kts | 271° |
| 2026-04-30 18:32 | 46.97440 | 15.55638 | 36366 ft | 455 kts | 271° |
| 2026-04-30 18:33 | 46.96904 | 15.41836 | 36366 ft | 455 kts | 271° |
| 2026-04-30 18:33 | 46.96353 | 15.27959 | 36362 ft | 456 kts | 271° |
| 2026-04-30 18:34 | 46.95782 | 15.14052 | 36362 ft | 456 kts | 271° |
| 2026-04-30 18:35 | 46.95397 | 15.04790 | 36364 ft | 456 kts | 271° |
| 2026-04-30 18:35 | 46.95006 | 14.95656 | 36347 ft | 456 kts | 271° |
| 2026-04-30 18:36 | 46.94392 | 14.81755 | 36340 ft | 456 kts | 270° |
| 2026-04-30 18:37 | 46.93801 | 14.68635 | 36338 ft | 457 kts | 270° |
| 2026-04-30 18:37 | 46.93368 | 14.59362 | 36341 ft | 457 kts | 270° |
| 2026-04-30 18:38 | 46.92935 | 14.50092 | 36352 ft | 457 kts | 270° |
| 2026-04-30 18:38 | 46.92499 | 14.40825 | 36343 ft | 456 kts | 270° |
| 2026-04-30 18:39 | 46.92044 | 14.31561 | 36339 ft | 457 kts | 270° |
| 2026-04-30 18:39 | 46.91587 | 14.22286 | 36343 ft | 457 kts | 270° |
| 2026-04-30 18:40 | 46.91130 | 14.13085 | 36337 ft | 457 kts | 270° |
| 2026-04-30 18:40 | 46.90659 | 14.03822 | 36345 ft | 457 kts | 270° |
| 2026-04-30 18:41 | 46.90203 | 13.95085 | 36347 ft | 457 kts | 270° |
| 2026-04-30 18:41 | 46.89717 | 13.85829 | 36340 ft | 457 kts | 270° |
| 2026-04-30 18:42 | 46.89218 | 13.76567 | 36330 ft | 457 kts | 270° |
| 2026-04-30 18:42 | 46.88460 | 13.62682 | 36313 ft | 457 kts | 270° |
| 2026-04-30 18:45 | 46.85549 | 13.11820 | 36304 ft | 457 kts | 270° |
| 2026-04-30 18:46 | 46.84995 | 13.02569 | 36300 ft | 456 kts | 270° |
| 2026-04-30 18:46 | 46.84435 | 12.93339 | 36299 ft | 456 kts | 270° |
| 2026-04-30 18:47 | 46.83867 | 12.84109 | 36287 ft | 456 kts | 270° |
| 2026-04-30 18:47 | 46.83291 | 12.74888 | 36279 ft | 456 kts | 270° |
| 2026-04-30 18:48 | 46.82708 | 12.65723 | 36274 ft | 456 kts | 270° |
| 2026-04-30 18:48 | 46.82123 | 12.56513 | 36265 ft | 455 kts | 270° |
| 2026-04-30 18:49 | 46.81529 | 12.47303 | 36261 ft | 455 kts | 270° |
| 2026-04-30 18:49 | 46.80923 | 12.38090 | 36252 ft | 457 kts | 270° |
| 2026-04-30 18:50 | 46.80050 | 12.28899 | 36269 ft | 462 kts | 259° |
| 2026-04-30 18:50 | 46.77501 | 12.20198 | 36244 ft | 470 kts | 246° |
| 2026-04-30 18:51 | 46.74536 | 12.11753 | 36265 ft | 469 kts | 247° |
| 2026-04-30 18:51 | 46.71587 | 12.03273 | 36263 ft | 468 kts | 247° |
| 2026-04-30 18:52 | 46.68642 | 11.94809 | 36270 ft | 468 kts | 247° |
| 2026-04-30 18:52 | 46.65681 | 11.86384 | 36255 ft | 467 kts | 246° |
| 2026-04-30 18:53 | 46.62699 | 11.77990 | 36238 ft | 466 kts | 246° |
| 2026-04-30 18:53 | 46.61208 | 11.73792 | 35735 ft | 469 kts | 247° |
| 2026-04-30 18:53 | 46.59707 | 11.69547 | 34853 ft | 476 kts | 247° |
| 2026-04-30 18:53 | 46.58206 | 11.65297 | 33984 ft | 480 kts | 247° |
| 2026-04-30 18:54 | 46.56652 | 11.60916 | 33213 ft | 481 kts | 246° |
| 2026-04-30 18:54 | 46.55143 | 11.56674 | 32658 ft | 477 kts | 246° |
| 2026-04-30 18:54 | 46.53623 | 11.52418 | 32096 ft | 474 kts | 246° |
| 2026-04-30 18:54 | 46.52106 | 11.48179 | 31561 ft | 470 kts | 246° |
| 2026-04-30 18:55 | 46.50607 | 11.43991 | 31018 ft | 466 kts | 246° |
| 2026-04-30 18:55 | 46.47632 | 11.35696 | 29881 ft | 461 kts | 245° |
| 2026-04-30 18:55 | 46.46152 | 11.31590 | 29288 ft | 457 kts | 245° |
| 2026-04-30 18:56 | 46.43332 | 11.23473 | 28246 ft | 448 kts | 247° |
| 2026-04-30 18:56 | 46.41967 | 11.19434 | 27732 ft | 445 kts | 247° |
| 2026-04-30 18:56 | 46.40615 | 11.15434 | 27337 ft | 441 kts | 247° |
| 2026-04-30 18:57 | 46.37911 | 11.07531 | 26404 ft | 434 kts | 247° |
| 2026-04-30 18:57 | 46.36558 | 11.03632 | 25962 ft | 431 kts | 247° |
| 2026-04-30 18:57 | 46.35213 | 10.99770 | 25550 ft | 428 kts | 247° |
| 2026-04-30 18:58 | 46.32558 | 10.92140 | 24769 ft | 423 kts | 247° |
| 2026-04-30 18:58 | 46.31235 | 10.88347 | 24389 ft | 420 kts | 247° |
| 2026-04-30 18:58 | 46.29926 | 10.84596 | 24018 ft | 417 kts | 247° |
| 2026-04-30 18:59 | 46.27347 | 10.77152 | 23183 ft | 411 kts | 247° |
| 2026-04-30 19:00 | 46.23618 | 10.66413 | 21918 ft | 401 kts | 247° |
| 2026-04-30 19:00 | 46.22366 | 10.62826 | 21496 ft | 398 kts | 247° |
| 2026-04-30 19:00 | 46.19893 | 10.55756 | 20510 ft | 392 kts | 247° |
| 2026-04-30 19:01 | 46.17448 | 10.48807 | 19663 ft | 385 kts | 246° |
| 2026-04-30 19:01 | 46.16303 | 10.45574 | 19267 ft | 383 kts | 246° |
| 2026-04-30 19:02 | 46.13876 | 10.38708 | 18349 ft | 376 kts | 246° |
| 2026-04-30 19:02 | 46.11524 | 10.32029 | 17403 ft | 371 kts | 246° |
| 2026-04-30 19:03 | 46.09203 | 10.25452 | 16515 ft | 365 kts | 246° |
| 2026-04-30 19:03 | 46.06912 | 10.18994 | 15579 ft | 359 kts | 245° |
| 2026-04-30 19:04 | 46.04570 | 10.12702 | 14736 ft | 355 kts | 236° |
| 2026-04-30 19:04 | 46.00956 | 10.07961 | 13915 ft | 351 kts | 218° |
| 2026-04-30 19:05 | 45.97134 | 10.03785 | 13092 ft | 345 kts | 218° |
| 2026-04-30 19:05 | 45.93438 | 9.99754 | 12714 ft | 325 kts | 218° |
| 2026-04-30 19:06 | 45.89674 | 9.96409 | 12094 ft | 317 kts | 197° |
| 2026-04-30 19:06 | 45.87519 | 9.95903 | 11723 ft | 313 kts | 179° |
| 2026-04-30 19:06 | 45.83225 | 9.96605 | 11029 ft | 309 kts | 172° |
| 2026-04-30 19:07 | 45.78992 | 9.97394 | 10365 ft | 305 kts | 172° |
| 2026-04-30 19:07 | 45.76894 | 9.97779 | 10021 ft | 303 kts | 172° |
| 2026-04-30 19:08 | 45.72787 | 9.98534 | 9317 ft | 298 kts | 172° |
| 2026-04-30 19:08 | 45.68641 | 9.99292 | 8097 ft | 310 kts | 172° |
| 2026-04-30 19:08 | 45.66460 | 9.99692 | 7266 ft | 322 kts | 172° |
| 2026-04-30 19:09 | 45.62512 | 9.98631 | 5755 ft | 312 kts | 218° |
| 2026-04-30 19:09 | 45.61204 | 9.96234 | 4926 ft | 308 kts | 248° |
| 2026-04-30 19:09 | 45.60934 | 9.93241 | 4086 ft | 306 kts | 279° |
| 2026-04-30 19:10 | 45.62483 | 9.87833 | 3056 ft | 282 kts | 296° |
| 2026-04-30 19:10 | 45.64052 | 9.83309 | 3270 ft | 219 kts | 296° |
| 2026-04-30 19:11 | 45.64733 | 9.81347 | 3759 ft | 224 kts | 296° |
| 2026-04-30 19:11 | 45.66053 | 9.77313 | 4875 ft | 228 kts | 295° |
| 2026-04-30 19:11 | 45.66679 | 9.75402 | 4987 ft | 228 kts | 295° |
| 2026-04-30 19:12 | 45.67361 | 9.73315 | 5007 ft | 227 kts | 295° |
| 2026-04-30 19:12 | 45.68028 | 9.71271 | 5011 ft | 227 kts | 295° |
| 2026-04-30 19:12 | 45.68697 | 9.69218 | 5012 ft | 227 kts | 295° |
| 2026-04-30 19:13 | 45.70018 | 9.65136 | 5012 ft | 227 kts | 291° |
| 2026-04-30 19:13 | 45.69556 | 9.60947 | 5007 ft | 224 kts | 224° |
| 2026-04-30 19:13 | 45.68238 | 9.59837 | 5013 ft | 222 kts | 190° |
| 2026-04-30 19:14 | 45.66724 | 9.59970 | 5009 ft | 221 kts | 156° |
| 2026-04-30 19:14 | 45.65532 | 9.61294 | 5016 ft | 220 kts | 122° |
| 2026-04-30 19:14 | 45.64946 | 9.63251 | 5007 ft | 221 kts | 107° |
| 2026-04-30 19:14 | 45.64728 | 9.64350 | 5009 ft | 221 kts | 105° |
| 2026-04-30 19:15 | 45.64352 | 9.66466 | 4956 ft | 222 kts | 104° |
| 2026-04-30 19:15 | 45.63661 | 9.70481 | 4459 ft | 218 kts | 104° |
| 2026-04-30 19:15 | 45.63305 | 9.72579 | 4131 ft | 217 kts | 104° |
| 2026-04-30 19:16 | 45.62953 | 9.74669 | 3819 ft | 216 kts | 104° |
| 2026-04-30 19:16 | 45.62625 | 9.76632 | 3501 ft | 215 kts | 104° |
| 2026-04-30 19:16 | 45.61935 | 9.80772 | 3016 ft | 213 kts | 104° |
| 2026-04-30 19:17 | 45.61600 | 9.82774 | 3005 ft | 199 kts | 104° |
| 2026-04-30 19:17 | 45.60978 | 9.86527 | 3014 ft | 193 kts | 104° |
| 2026-04-30 19:17 | 45.60671 | 9.88395 | 3015 ft | 194 kts | 104° |
| 2026-04-30 19:18 | 45.60196 | 9.91313 | 3023 ft | 169 kts | 104° |
| 2026-04-30 19:18 | 45.59854 | 9.93379 | 3009 ft | 151 kts | 108° |
| 2026-04-30 19:18 | 45.59338 | 9.94637 | 3026 ft | 148 kts | 130° |
| 2026-04-30 19:19 | 45.58654 | 9.95727 | 3019 ft | 147 kts | 133° |
| 2026-04-30 19:19 | 45.57951 | 9.96787 | 3019 ft | 147 kts | 128° |
| 2026-04-30 19:19 | 45.57922 | 9.99492 | 3018 ft | 152 kts | 49° |
| 2026-04-30 19:20 | 45.58821 | 10.00215 | 3022 ft | 156 kts | 11° |
| 2026-04-30 19:20 | 45.59893 | 10.00427 | 3009 ft | 157 kts | 8° |
| 2026-04-30 19:20 | 45.61546 | 9.98860 | 3009 ft | 159 kts | 283° |
| 2026-04-30 19:21 | 45.61830 | 9.97336 | 3005 ft | 159 kts | 283° |
| 2026-04-30 19:21 | 45.62367 | 9.94398 | 2866 ft | 152 kts | 284° |
| 2026-04-30 19:22 | 45.62913 | 9.91454 | 2772 ft | 152 kts | 284° |
| 2026-04-30 19:22 | 45.63726 | 9.87100 | 2743 ft | 151 kts | 284° |
| 2026-04-30 19:23 | 45.64529 | 9.82786 | 2279 ft | 143 kts | 284° |
| 2026-04-30 19:24 | 45.65040 | 9.80051 | 1884 ft | 142 kts | 284° |
| 2026-04-30 19:24 | 45.65295 | 9.78686 | 1695 ft | 142 kts | 284° |
| 2026-04-30 19:24 | 45.65800 | 9.75979 | 1319 ft | 141 kts | 284° |
| 2026-04-30 19:25 | 45.66544 | 9.71990 | 776 ft | 139 kts | 284° |
| 2026-04-30 19:26 | 45.66927 | 9.69932 | 786 ft | 64 kts | 285° |
| 2026-04-30 19:26 | 45.67097 | 9.69315 | 789 ft | 22 kts | 322° |
| 2026-04-30 19:26 | 45.67152 | 9.69339 | 790 ft | 0 kts | 16° |
| 2026-04-30 19:27 | 45.67196 | 9.69462 | 790 ft | 12 kts | 98° |
| 2026-04-30 19:27 | 45.67143 | 9.69749 | 788 ft | 18 kts | 105° |
| 2026-04-30 19:28 | 45.67110 | 9.69934 | 787 ft | 21 kts | 104° |
| 2026-04-30 19:28 | 45.67167 | 9.70096 | 790 ft | 7 kts | 0° |
| 2026-04-30 19:29 | 45.67191 | 9.70096 | 791 ft | 0 kts | 360° |